Terminal Aerodrome Forecast
Issued by NWS Portland, OR

Home | Current Version | Previous Version | Text Only | Print | Product List | Glossary On
Versions: 1 2 3 4 5 6 7 8 9 10 11 12 13 14 15 16 17 18 19 20 21 22 23 24 25 26 27 28 29 30 31
000
FTUS46 KPQR 012320
TAFTTD
TAF
KTTD 012320Z 0200/0224 24010KT P6SM OVC070
     FM020300 24004KT P6SM VCSH SCT035 OVC050
     FM021200 22003KT P6SM -SHRA OVC015
     FM021400 22003KT P6SM -RA OVC021
     FM022200 22006KT P6SM VCSH SCT025 OVC050=

USA.gov is the U.S. government's official web portal to all federal, state and local government web resources and services.